Time;durP1;ratioP1;P1;durP2;ratioP2;P2;SDS_P1;SDS_P2;PMS_P1;PMS_P2;Temp;Humidity;BMP_temperature;BMP_pressure;BME280_temperature;BME280_humidity;BME280_pressure;Samples;Min_cycle;Max_cycle;Signal;HPM_P1;HPM_P2
2022/06/06 04:01:42;;;;;;;14.07;9.63;;;13.90;99.90;;;;;;5505919;22;20485;-73
2022/06/06 04:04:08;;;;;;;13.55;9.73;;;13.80;99.90;;;;;;5068126;28;20045;-72
2022/06/06 04:06:34;;;;;;;13.70;10.32;;;13.80;99.90;;;;;;5074089;28;20029;-73
2022/06/06 04:09:01;;;;;;;13.77;9.98;;;13.90;99.90;;;;;;5073273;28;20063;-73
2022/06/06 04:11:29;;;;;;;14.00;9.95;;;13.80;99.90;;;;;;5084099;28;20493;-73
2022/06/06 04:14:32;;;;;;;13.93;10.70;;;13.80;99.90;;;;;;5093854;28;20086;-73
2022/06/06 04:17:15;;;;;;;12.32;10.60;;;13.90;99.90;;;;;;5061566;22;20140;-75
2022/06/06 04:19:44;;;;;;;12.10;9.40;;;13.90;99.90;;;;;;5032979;28;20068;-74
2022/06/06 04:22:37;;;;;;;12.77;10.70;;;13.90;99.90;;;;;;5033009;28;20101;-74
2022/06/06 04:25:35;;;;;;;15.38;11.55;;;13.90;99.90;;;;;;5033160;28;20038;-74
2022/06/06 04:28:32;;;;;;;13.85;11.18;;;14.00;99.90;;;;;;5033808;28;20478;-75
2022/06/06 04:31:19;;;;;;;12.52;10.13;;;14.00;99.90;;;;;;5032434;28;20057;-75
2022/06/06 04:34:09;;;;;;;12.98;10.30;;;14.10;99.90;;;;;;5031966;28;20530;-75
2022/06/06 04:36:55;;;;;;;12.43;10.85;;;14.10;99.90;;;;;;5017556;28;20490;-75
2022/06/06 04:39:33;;;;;;;14.77;9.95;;;14.20;99.90;;;;;;5032357;28;20132;-75
2022/06/06 04:42:19;;;;;;;12.40;10.48;;;14.20;99.90;;;;;;5032707;28;20052;-75
2022/06/06 04:45:05;;;;;;;12.15;10.30;;;14.20;99.90;;;;;;5032840;28;20392;-74
2022/06/06 04:47:35;;;;;;;11.57;9.48;;;14.20;99.90;;;;;;5031594;28;20539;-75
2022/06/06 04:50:10;;;;;;;11.23;9.93;;;14.30;99.90;;;;;;5033182;28;20411;-76
2022/06/06 04:52:38;;;;;;;12.27;9.77;;;14.30;99.90;;;;;;5033623;28;20080;-76
2022/06/06 04:55:07;;;;;;;11.85;9.35;;;14.40;99.90;;;;;;5032832;28;20026;-76
2022/06/06 04:57:35;;;;;;;10.75;9.20;;;14.50;99.90;;;;;;5033623;28;20129;-76
2022/06/06 05:00:04;;;;;;;10.07;9.07;;;14.50;99.90;;;;;;5031485;28;20049;-76
2022/06/06 05:02:31;;;;;;;11.32;9.30;;;14.60;99.90;;;;;;5033535;28;20061;-76
2022/06/06 05:04:59;;;;;;;11.65;9.52;;;14.80;99.90;;;;;;5033146;28;20042;-76
2022/06/06 05:07:45;;;;;;;12.18;9.02;;;15.00;99.90;;;;;;5031619;28;20037;-75
2022/06/06 05:10:46;;;;;;;11.25;9.45;;;15.20;99.90;;;;;;5032244;28;20034;-75
2022/06/06 05:13:33;;;;;;;10.38;9.07;;;15.50;99.90;;;;;;5031630;28;20034;-75
2022/06/06 05:16:07;;;;;;;10.00;7.90;;;15.70;99.90;;;;;;5031221;28;20934;-75
2022/06/06 05:18:51;;;;;;;8.88;8.05;;;16.00;99.90;;;;;;5032944;28;20049;-75
2022/06/06 05:21:38;;;;;;;9.23;7.38;;;16.10;99.90;;;;;;5036418;28;20105;-76
2022/06/06 05:24:18;;;;;;;11.00;7.18;;;16.30;99.90;;;;;;5034661;28;20105;-77
2022/06/06 05:27:21;;;;;;;8.82;6.85;;;16.40;99.90;;;;;;5034838;28;20057;-77
2022/06/06 05:30:24;;;;;;;10.55;6.05;;;16.50;99.90;;;;;;5036989;28;20044;-76
2022/06/06 05:33:07;;;;;;;8.07;6.50;;;16.60;99.90;;;;;;5028062;28;20137;-76
2022/06/06 05:36:03;;;;;;;7.18;6.45;;;16.80;99.90;;;;;;5034776;28;20033;-76
2022/06/06 05:39:08;;;;;;;8.00;6.50;;;17.00;99.90;;;;;;5036336;28;20117;-75
2022/06/06 05:41:46;;;;;;;8.93;5.97;;;17.10;99.90;;;;;;5035118;28;20109;-76
2022/06/06 05:44:46;;;;;;;6.70;5.30;;;17.30;99.90;;;;;;5034167;28;20577;-76
2022/06/06 05:47:43;;;;;;;7.28;5.30;;;17.50;99.90;;;;;;5015681;28;20046;-76
2022/06/06 05:50:27;;;;;;;5.88;5.15;;;17.70;99.90;;;;;;5035572;28;20041;-76
2022/06/06 05:53:21;;;;;;;6.78;5.50;;;17.90;99.90;;;;;;5035350;28;20100;-76
2022/06/06 05:55:58;;;;;;;6.55;4.97;;;18.20;99.90;;;;;;5034497;28;20573;-76
2022/06/06 05:58:29;;;;;;;6.28;5.07;;;18.30;99.90;;;;;;5036229;28;20038;-76
2022/06/06 06:01:01;;;;;;;6.93;4.80;;;18.20;99.90;;;;;;5034579;28;20034;-75
2022/06/06 06:04:03;;;;;;;5.70;5.18;;;18.30;99.90;;;;;;5035694;28;20038;-76
2022/06/06 06:06:48;;;;;;;5.82;4.53;;;18.50;99.90;;;;;;5035903;28;20522;-75
2022/06/06 06:09:22;;;;;;;5.20;4.70;;;18.60;99.90;;;;;;5036346;28;20042;-76
2022/06/06 06:12:12;;;;;;;6.25;4.82;;;18.80;99.90;;;;;;5035190;28;20135;-76
2022/06/06 06:15:22;;;;;;;5.35;4.53;;;19.00;99.90;;;;;;5035769;28;20030;-76
2022/06/06 06:17:52;;;;;;;5.55;4.70;;;19.10;99.90;;;;;;5012762;28;20046;-76
2022/06/06 06:20:21;;;;;;;6.82;4.53;;;19.50;99.90;;;;;;5031155;28;20042;-75
2022/06/06 06:23:03;;;;;;;7.10;4.32;;;19.90;99.90;;;;;;5034136;28;20038;-76
2022/06/06 06:25:36;;;;;;;4.43;4.03;;;20.30;99.90;;;;;;5035639;28;20041;-75
2022/06/06 06:28:07;;;;;;;6.63;4.38;;;20.40;99.90;;;;;;5035456;28;20080;-76
2022/06/06 06:30:56;;;;;;;6.47;4.18;;;20.70;99.90;;;;;;5034100;28;20108;-76
2022/06/06 06:33:41;;;;;;;5.20;3.78;;;20.70;99.90;;;;;;5035025;28;20060;-76
2022/06/06 06:36:30;;;;;;;4.38;3.75;;;20.70;99.90;;;;;;5033516;28;20036;-75
2022/06/06 06:39:05;;;;;;;4.35;3.95;;;20.70;99.90;;;;;;5035145;28;20034;-76
2022/06/06 06:41:36;;;;;;;5.82;3.92;;;20.80;99.90;;;;;;5034809;28;20040;-76
2022/06/06 06:44:11;;;;;;;5.75;3.53;;;20.80;99.90;;;;;;5033469;28;20527;-75
2022/06/06 06:47:02;;;;;;;5.80;3.40;;;21.10;99.90;;;;;;5032776;28;20057;-75
2022/06/06 06:49:41;;;;;;;4.60;3.95;;;21.40;99.90;;;;;;5024260;28;20129;-76
2022/06/06 06:52:10;;;;;;;5.05;4.25;;;21.40;99.90;;;;;;5027858;28;20033;-76
2022/06/06 06:54:38;;;;;;;6.47;3.83;;;21.40;99.90;;;;;;5027640;28;20046;-76
2022/06/06 06:57:17;;;;;;;4.03;3.33;;;21.60;99.90;;;;;;5017037;28;20093;-74
2022/06/06 07:00:04;;;;;;;4.75;3.88;;;21.70;99.90;;;;;;5015292;28;20034;-76
2022/06/06 07:08:33;;;;;;;5.85;4.05;;;22.00;99.90;;;;;;5030654;28;20046;-78
2022/06/06 07:11:36;;;;;;;6.22;3.53;;;22.50;99.90;;;;;;5034327;28;20490;-77
2022/06/06 07:14:10;;;;;;;5.88;3.45;;;22.70;99.90;;;;;;5035259;28;20149;-76
2022/06/06 07:16:38;;;;;;;4.35;3.95;;;22.80;99.90;;;;;;5030742;28;20034;-77
2022/06/06 07:19:21;;;;;;;4.68;3.63;;;22.90;99.90;;;;;;5029261;28;20121;-77
2022/06/06 07:21:49;;;;;;;4.53;3.95;;;22.40;99.90;;;;;;5029751;28;20034;-80
2022/06/06 07:24:21;;;;;;;5.03;3.38;;;22.30;99.90;;;;;;5027532;28;20069;-79
2022/06/06 07:26:47;;;;;;;5.35;3.70;;;22.10;99.90;;;;;;5032915;28;20618;-75
2022/06/06 07:29:18;;;;;;;4.28;3.55;;;21.90;99.90;;;;;;5032837;28;20038;-75
2022/06/06 07:32:19;;;;;;;5.15;3.80;;;21.80;99.90;;;;;;5034286;28;20189;-75
2022/06/06 07:35:11;;;;;;;4.93;4.20;;;21.80;99.90;;;;;;5034307;28;20041;-75
2022/06/06 07:38:20;;;;;;;5.40;3.47;;;21.90;99.90;;;;;;5035151;28;20069;-77
2022/06/06 07:41:15;;;;;;;5.25;3.95;;;22.30;99.90;;;;;;5031008;28;20042;-77
2022/06/06 07:44:25;;;;;;;5.28;3.60;;;22.70;99.90;;;;;;5032790;28;20038;-80
2022/06/06 07:47:07;;;;;;;5.28;3.80;;;23.40;99.90;;;;;;5034948;28;20025;-77
2022/06/06 07:49:53;;;;;;;4.45;3.40;;;23.80;99.90;;;;;;5034599;28;20038;-79
2022/06/06 07:52:36;;;;;;;5.28;3.67;;;23.60;99.90;;;;;;5035097;28;20052;-77
2022/06/06 07:55:38;;;;;;;4.45;3.90;;;23.60;99.90;;;;;;5033624;28;20030;-77
2022/06/06 07:58:12;;;;;;;4.25;3.42;;;23.20;99.90;;;;;;5022642;28;20041;-79
2022/06/06 08:00:39;;;;;;;5.38;3.72;;;22.80;99.90;;;;;;5034698;28;20368;-80
2022/06/06 08:03:19;;;;;;;3.90;3.53;;;22.70;99.90;;;;;;5029297;28;20546;-83
2022/06/06 08:06:08;;;;;;;5.50;3.22;;;22.50;99.90;;;;;;5023272;28;20547;-78
2022/06/06 08:09:07;;;;;;;5.25;3.60;;;22.70;99.90;;;;;;5022325;28;20061;-76
2022/06/06 08:12:01;;;;;;;5.40;3.83;;;22.60;99.90;;;;;;5031540;28;20101;-74
2022/06/06 08:14:46;;;;;;;4.00;3.45;;;22.70;99.90;;;;;;5016094;28;20178;-74
2022/06/06 08:17:26;;;;;;;5.78;3.60;;;22.80;99.90;;;;;;5018938;28;20038;-74
2022/06/06 08:20:01;;;;;;;3.25;2.95;;;22.50;99.90;;;;;;5018784;28;20109;-78
2022/06/06 08:22:29;;;;;;;6.00;3.10;;;22.90;99.90;;;;;;5020273;28;20042;-76
2022/06/06 08:24:58;;;;;;;3.90;3.30;;;23.40;99.90;;;;;;5017483;28;20412;-74
2022/06/06 08:27:26;;;;;;;5.10;3.60;;;23.50;99.90;;;;;;5025443;28;20046;-79
2022/06/06 08:29:52;;;;;;;4.97;3.35;;;23.80;99.90;;;;;;5035015;28;20038;-72
2022/06/06 08:32:18;;;;;;;3.80;3.20;;;23.70;99.90;;;;;;5017119;28;20053;-72
2022/06/06 08:34:45;;;;;;;6.60;3.50;;;23.70;99.90;;;;;;5028916;28;20025;-72
2022/06/06 08:37:13;;;;;;;3.67;3.13;;;23.60;99.90;;;;;;5032712;28;20637;-72
2022/06/06 08:40:24;;;;;;;5.35;3.22;;;23.40;99.90;;;;;;5032710;28;20056;-74
2022/06/06 08:43:11;;;;;;;4.13;3.03;;;23.40;99.90;;;;;;5031060;28;20727;-72
2022/06/06 08:46:20;;;;;;;5.07;3.00;;;23.50;99.30;;;;;;5039587;28;20085;-72
2022/06/06 08:48:57;;;;;;;5.63;3.30;;;23.20;99.60;;;;;;5032214;28;20448;-76
2022/06/06 08:51:47;;;;;;;3.60;3.30;;;23.00;99.90;;;;;;5031355;28;20088;-75
2022/06/06 08:55:02;;;;;;;5.35;3.92;;;22.70;99.90;;;;;;5026708;28;20045;-73
2022/06/06 08:57:45;;;;;;;5.43;3.33;;;22.60;99.90;;;;;;4984116;28;20042;-74
2022/06/06 09:00:43;;;;;;;3.60;3.30;;;22.40;99.90;;;;;;5035632;28;20048;-77
2022/06/06 09:03:09;;;;;;;4.10;3.10;;;22.60;99.90;;;;;;5017307;28;20046;-74
2022/06/06 09:06:24;;;;;;;4.90;3.20;;;22.50;99.60;;;;;;5037049;28;20076;-73
2022/06/06 09:08:58;;;;;;;6.55;3.17;;;22.60;99.90;;;;;;5035457;28;20065;-76
2022/06/06 09:12:02;;;;;;;4.07;3.03;;;23.00;99.40;;;;;;5035001;28;20041;-74
2022/06/06 09:14:54;;;;;;;4.53;3.00;;;23.40;99.00;;;;;;5037061;28;20033;-75
2022/06/06 09:17:49;;;;;;;3.75;2.70;;;23.90;98.80;;;;;;5020847;28;20094;-74
2022/06/06 09:20:43;;;;;;;4.03;3.05;;;24.10;96.80;;;;;;5032226;28;20037;-74
2022/06/06 09:23:21;;;;;;;3.47;2.95;;;24.20;96.90;;;;;;5028476;28;20041;-74
2022/06/06 09:26:09;;;;;;;6.05;2.95;;;24.10;95.60;;;;;;5028773;28;20045;-77
2022/06/06 09:28:51;;;;;;;4.22;2.95;;;24.30;96.20;;;;;;5033610;28;20030;-72
2022/06/06 09:31:35;;;;;;;4.55;3.20;;;24.40;97.60;;;;;;5020752;28;20042;-72
2022/06/06 09:34:31;;;;;;;4.57;2.90;;;24.50;96.00;;;;;;5036978;28;20602;-73
2022/06/06 09:37:07;;;;;;;6.35;3.00;;;24.30;97.30;;;;;;5035961;28;20037;-73
2022/06/06 09:40:04;;;;;;;4.93;3.05;;;24.00;97.10;;;;;;5034497;28;20050;-73
2022/06/06 09:42:37;;;;;;;3.22;2.92;;;23.80;99.60;;;;;;5035334;28;20570;-73
2022/06/06 09:45:19;;;;;;;6.53;3.00;;;24.10;97.40;;;;;;5032985;28;20040;-78
2022/06/06 09:48:13;;;;;;;4.10;2.50;;;24.70;96.40;;;;;;5032141;28;20034;-73
2022/06/06 09:51:06;;;;;;;3.22;2.90;;;24.90;94.40;;;;;;5032693;28;20495;-73
2022/06/06 09:53:41;;;;;;;4.18;2.70;;;24.60;95.80;;;;;;5034969;28;20538;-75
2022/06/06 10:00:11;;;;;;;5.97;2.25;;;25.50;93.70;;;;;;5025564;28;20084;-73
2022/06/06 10:03:07;;;;;;;5.60;2.35;;;25.60;92.40;;;;;;4990024;28;20031;-73
2022/06/06 10:05:48;;;;;;;3.58;2.40;;;25.60;91.30;;;;;;4968977;28;20089;-74
2022/06/06 10:08:38;;;;;;;3.72;2.05;;;25.80;89.50;;;;;;5004163;28;20073;-76
2022/06/06 10:11:12;;;;;;;4.25;2.20;;;25.90;89.70;;;;;;5035983;28;20120;-74
2022/06/06 10:14:11;;;;;;;3.95;2.42;;;26.00;91.00;;;;;;5034578;28;20039;-76
2022/06/06 10:17:14;;;;;;;3.38;2.20;;;26.30;92.10;;;;;;5033559;28;20140;-73
2022/06/06 10:19:51;;;;;;;3.90;1.90;;;26.20;88.40;;;;;;5062181;23;20077;-74
2022/06/06 10:22:32;;;;;;;3.83;1.75;;;26.80;85.80;;;;;;5038749;28;20516;-73
2022/06/06 10:25:12;;;;;;;2.30;1.88;;;26.90;85.50;;;;;;5038365;28;20489;-72
2022/06/06 10:27:44;;;;;;;4.53;1.70;;;26.50;85.40;;;;;;5037751;28;20064;-74
2022/06/06 10:30:21;;;;;;;3.33;1.80;;;25.40;86.50;;;;;;5051674;28;20030;-74
2022/06/06 10:33:06;;;;;;;2.78;1.70;;;25.30;85.80;;;;;;5040366;28;20061;-78
2022/06/06 10:36:06;;;;;;;2.70;1.60;;;25.40;85.80;;;;;;5044110;28;20030;-76
2022/06/06 10:38:50;;;;;;;3.05;1.38;;;25.90;81.70;;;;;;5051859;28;20045;-74
2022/06/06 10:41:41;;;;;;;2.97;1.30;;;26.20;81.90;;;;;;5041657;28;20034;-74
2022/06/06 10:44:23;;;;;;;2.42;1.50;;;26.30;77.10;;;;;;5045812;28;20030;-73
2022/06/06 10:46:52;;;;;;;3.00;1.75;;;26.30;78.70;;;;;;5048059;28;20040;-73
2022/06/06 10:49:42;;;;;;;3.13;1.77;;;26.00;79.10;;;;;;5046029;28;20038;-73
2022/06/06 10:52:36;;;;;;;12.93;3.05;;;26.00;79.60;;;;;;5037913;28;20041;-73
2022/06/06 10:55:14;;;;;;;1.90;1.50;;;26.40;78.10;;;;;;5045940;28;20029;-73
2022/06/06 10:58:17;;;;;;;3.05;1.60;;;26.80;78.50;;;;;;5049925;28;20532;-73
2022/06/06 11:01:21;;;;;;;3.53;1.90;;;27.10;76.40;;;;;;5039370;28;20159;-72
2022/06/06 11:04:05;;;;;;;3.30;1.50;;;26.30;75.20;;;;;;5045609;28;20045;-72
2022/06/06 11:07:00;;;;;;;4.72;1.45;;;26.30;73.60;;;;;;5045442;28;20029;-72
2022/06/06 11:09:43;;;;;;;2.38;1.60;;;27.00;74.70;;;;;;5045900;28;20124;-72
2022/06/06 11:12:42;;;;;;;3.88;1.60;;;27.60;71.70;;;;;;5040360;28;20114;-72
2022/06/06 11:15:08;;;;;;;2.92;1.42;;;27.70;72.40;;;;;;5041275;28;20482;-73
2022/06/06 11:17:50;;;;;;;2.05;1.50;;;27.10;71.70;;;;;;5043732;28;20046;-72
2022/06/06 11:20:46;;;;;;;3.03;1.67;;;26.40;71.80;;;;;;5052090;28;20877;-74
2022/06/06 11:23:24;;;;;;;4.72;1.60;;;25.90;75.80;;;;;;5043387;28;20544;-73
2022/06/06 11:26:17;;;;;;;8.00;1.80;;;26.40;75.70;;;;;;5042724;28;20030;-71
2022/06/06 11:28:45;;;;;;;2.72;1.60;;;27.40;74.20;;;;;;5046259;28;20041;-72
2022/06/06 11:32:01;;;;;;;1.70;1.40;;;27.70;71.60;;;;;;5043987;28;20411;-73
2022/06/06 11:35:08;;;;;;;2.35;1.88;;;27.20;70.60;;;;;;5014582;28;20710;-72
2022/06/06 11:38:17;;;;;;;2.65;1.60;;;26.30;72.40;;;;;;5045525;28;20036;-71
2022/06/06 11:40:49;;;;;;;3.05;1.42;;;25.70;73.20;;;;;;5035477;28;20033;-71
2022/06/06 11:43:51;;;;;;;2.85;2.05;;;25.70;77.20;;;;;;5054694;28;20529;-71
2022/06/06 11:46:55;;;;;;;4.82;1.70;;;25.80;76.40;;;;;;5038526;28;20065;-70
2022/06/06 11:49:54;;;;;;;2.03;1.60;;;26.90;75.20;;;;;;5042491;28;20026;-71
2022/06/06 11:52:46;;;;;;;3.28;1.60;;;27.20;71.70;;;;;;5036273;28;20045;-71
2022/06/06 11:55:40;;;;;;;1.77;1.40;;;26.50;75.60;;;;;;5045104;28;20085;-71
2022/06/06 11:58:29;;;;;;;3.90;1.70;;;25.90;74.70;;;;;;5048161;28;20121;-74
2022/06/06 12:01:13;;;;;;;2.58;1.77;;;25.40;75.50;;;;;;5038824;28;20029;-73
2022/06/06 12:04:16;;;;;;;3.15;1.58;;;26.20;77.40;;;;;;5053767;28;20037;-72
2022/06/06 12:06:42;;;;;;;3.05;1.40;;;27.10;73.10;;;;;;5048424;28;20021;-73
2022/06/06 12:09:19;;;;;;;8.13;1.77;;;27.80;78.20;;;;;;5040412;28;20064;-73
2022/06/06 12:12:25;;;;;;;2.75;1.40;;;28.40;72.20;;;;;;5041996;28;20172;-72
2022/06/06 12:15:01;;;;;;;4.47;1.73;;;29.00;77.70;;;;;;5043521;28;20034;-73
2022/06/06 12:17:44;;;;;;;2.45;1.60;;;29.80;65.10;;;;;;5034934;28;20037;-75
2022/06/06 12:20:31;;;;;;;4.88;1.70;;;29.30;65.20;;;;;;5047245;28;20047;-79
2022/06/06 12:23:10;;;;;;;2.47;1.63;;;29.40;63.30;;;;;;5051819;28;20494;-74
2022/06/06 12:25:46;;;;;;;2.60;1.40;;;28.70;63.60;;;;;;5038337;28;20053;-73
2022/06/06 12:28:49;;;;;;;3.50;1.73;;;28.40;67.10;;;;;;5045151;28;20044;-74
2022/06/06 12:31:48;;;;;;;2.97;1.60;;;28.50;66.00;;;;;;5045168;28;20038;-74
2022/06/06 12:34:20;;;;;;;2.78;1.67;;;28.90;66.80;;;;;;5037463;28;20041;-74
2022/06/06 12:37:08;;;;;;;1.88;1.60;;;28.80;63.40;;;;;;5037549;28;20088;-74
2022/06/06 12:40:06;;;;;;;3.97;1.75;;;28.40;65.80;;;;;;5039418;28;20065;-75
2022/06/06 12:42:38;;;;;;;3.28;1.48;;;28.40;65.50;;;;;;5012217;28;20092;-74
2022/06/06 12:45:28;;;;;;;2.35;1.60;;;28.50;68.20;;;;;;5040216;28;20037;-74
2022/06/06 12:48:25;;;;;;;4.68;2.00;;;28.50;66.10;;;;;;5037881;28;20109;-74
2022/06/06 12:51:13;;;;;;;1.40;1.30;;;28.10;66.20;;;;;;5039010;28;20081;-74
2022/06/06 12:53:54;;;;;;;3.95;1.80;;;27.50;67.10;;;;;;5038855;28;20042;-74
2022/06/06 12:56:54;;;;;;;3.83;1.50;;;26.90;69.20;;;;;;5039732;28;20033;-75
2022/06/06 12:59:25;;;;;;;2.35;1.50;;;26.40;71.00;;;;;;5038008;28;20068;-74
2022/06/06 13:02:23;;;;;;;2.22;1.60;;;26.20;70.80;;;;;;5037953;28;20030;-74
2022/06/06 13:05:08;;;;;;;2.72;1.70;;;25.90;72.90;;;;;;5037896;28;20038;-73
2022/06/06 13:07:48;;;;;;;2.38;1.60;;;25.40;72.30;;;;;;5038452;28;20041;-74
2022/06/06 13:10:46;;;;;;;2.85;1.80;;;24.90;74.30;;;;;;5038470;28;20041;-74
2022/06/06 13:13:41;;;;;;;2.17;1.70;;;24.40;75.60;;;;;;5037207;28;20045;-74
2022/06/06 13:16:43;;;;;;;2.42;1.73;;;23.90;79.00;;;;;;5037264;28;20034;-74
2022/06/06 13:19:23;;;;;;;3.10;1.85;;;23.80;79.40;;;;;;5038067;28;20037;-74
2022/06/06 13:22:19;;;;;;;3.63;2.15;;;23.60;80.20;;;;;;5037252;28;20089;-74
2022/06/06 13:25:09;;;;;;;2.25;1.70;;;23.50;80.50;;;;;;5038789;28;20034;-75
2022/06/06 13:27:59;;;;;;;2.20;1.90;;;23.30;81.00;;;;;;5038651;28;20165;-74
2022/06/06 13:30:31;;;;;;;2.83;1.80;;;23.20;80.90;;;;;;5035994;28;20033;-74
2022/06/06 13:33:14;;;;;;;3.33;2.15;;;23.10;81.90;;;;;;5037772;28;20038;-74
2022/06/06 13:36:07;;;;;;;2.88;2.10;;;23.00;84.90;;;;;;5038170;28;20508;-74
2022/06/06 13:38:56;;;;;;;3.15;2.40;;;22.80;83.60;;;;;;5037650;28;20044;-74
2022/06/06 13:41:43;;;;;;;3.97;2.10;;;22.70;84.30;;;;;;5035102;28;20038;-74
2022/06/06 13:44:29;;;;;;;3.92;2.30;;;22.60;84.00;;;;;;5037743;28;20113;-75
2022/06/06 13:47:16;;;;;;;2.78;1.98;;;22.60;84.60;;;;;;5036913;28;20029;-74
2022/06/06 13:50:09;;;;;;;6.90;2.13;;;22.50;85.00;;;;;;5037243;28;20038;-74
2022/06/06 13:52:49;;;;;;;3.47;2.80;;;22.50;86.10;;;;;;5036154;28;20038;-72
2022/06/06 13:55:25;;;;;;;2.47;2.25;;;22.50;87.30;;;;;;5036051;28;20026;-73
2022/06/06 13:58:16;;;;;;;6.22;2.30;;;22.60;88.70;;;;;;5035737;28;20045;-71
2022/06/06 14:00:50;;;;;;;2.40;1.90;;;22.50;88.90;;;;;;5034345;28;20488;-71
2022/06/06 14:03:45;;;;;;;3.22;1.80;;;22.40;85.10;;;;;;5035948;28;20045;-71
2022/06/06 14:06:35;;;;;;;3.38;2.42;;;22.40;85.50;;;;;;5035469;28;20082;-71
2022/06/06 14:09:01;;;;;;;3.78;2.58;;;22.30;89.20;;;;;;5035998;28;20025;-71
2022/06/06 14:12:06;;;;;;;3.35;2.50;;;22.30;86.20;;;;;;5035350;28;20034;-72
2022/06/06 14:14:35;;;;;;;3.83;2.10;;;22.40;87.40;;;;;;5035530;28;20038;-72
2022/06/06 14:17:04;;;;;;;3.85;2.05;;;22.60;85.30;;;;;;5035718;28;20033;-72
2022/06/06 14:19:49;;;;;;;4.80;1.90;;;22.60;85.20;;;;;;5034684;28;20480;-72
2022/06/06 14:22:28;;;;;;;1.98;1.63;;;22.80;85.20;;;;;;5033593;28;20090;-71
2022/06/06 14:24:55;;;;;;;4.55;2.05;;;23.20;81.50;;;;;;5035064;28;20093;-72
2022/06/06 14:27:22;;;;;;;3.67;2.00;;;23.70;81.10;;;;;;5033855;28;20034;-74
2022/06/06 14:29:50;;;;;;;3.00;1.58;;;24.10;83.00;;;;;;5035352;28;20034;-72
2022/06/06 14:32:27;;;;;;;2.83;1.85;;;24.30;80.80;;;;;;5033627;28;20113;-72
2022/06/06 14:35:02;;;;;;;2.47;2.15;;;24.10;80.20;;;;;;5035488;28;20080;-72
2022/06/06 14:37:33;;;;;;;2.70;2.10;;;23.70;80.70;;;;;;5035695;28;20026;-72
2022/06/06 14:40:04;;;;;;;2.92;2.45;;;23.60;80.80;;;;;;5035061;28;20122;-71
2022/06/06 14:42:33;;;;;;;3.47;2.50;;;23.30;83.20;;;;;;5035751;28;20062;-76
2022/06/06 14:45:14;;;;;;;3.10;2.00;;;23.20;84.90;;;;;;5033980;28;20030;-72
2022/06/06 14:47:54;;;;;;;3.60;1.95;;;23.00;84.90;;;;;;5041221;28;20517;-74
2022/06/06 14:53:44;;;;;;;5.13;2.10;;;22.80;84.70;;;;;;5034132;28;20042;-72
2022/06/06 14:56:24;;;;;;;4.15;2.15;;;22.70;86.30;;;;;;5035444;28;20049;-72
2022/06/06 14:58:54;;;;;;;4.18;2.10;;;22.70;86.50;;;;;;5035232;28;20496;-73
2022/06/06 15:01:22;;;;;;;5.15;2.30;;;22.70;86.90;;;;;;5053515;28;20379;-74
2022/06/06 15:03:51;;;;;;;2.67;2.15;;;22.70;87.10;;;;;;5052944;28;20044;-74
2022/06/06 15:06:31;;;;;;;4.20;2.47;;;22.70;88.10;;;;;;5044126;28;20030;-73
2022/06/06 15:09:08;;;;;;;3.25;2.30;;;22.70;88.00;;;;;;5035424;28;20030;-73
2022/06/06 15:11:34;;;;;;;5.47;2.60;;;22.70;89.10;;;;;;5034239;28;20503;-73
2022/06/06 15:14:05;;;;;;;4.05;2.65;;;22.70;89.30;;;;;;5035569;28;20529;-74
2022/06/06 15:16:33;;;;;;;3.92;2.67;;;22.60;90.50;;;;;;5044788;28;20030;-73
2022/06/06 15:19:00;;;;;;;3.33;2.58;;;22.60;91.00;;;;;;5035284;28;20037;-74
2022/06/06 15:21:31;;;;;;;4.07;2.70;;;22.50;90.90;;;;;;5038147;28;20098;-73
2022/06/06 15:24:03;;;;;;;3.35;2.40;;;22.40;91.00;;;;;;5049756;28;20491;-72
2022/06/06 15:26:47;;;;;;;7.53;2.83;;;22.30;91.00;;;;;;5048119;28;20108;-74
2022/06/06 15:29:37;;;;;;;5.32;2.78;;;22.20;91.70;;;;;;5041808;28;20033;-74
2022/06/06 15:32:15;;;;;;;6.22;2.70;;;22.00;91.70;;;;;;5045285;28;20044;-76
2022/06/06 15:34:52;;;;;;;5.07;3.00;;;21.90;91.80;;;;;;5041995;28;20116;-75
2022/06/06 15:37:41;;;;;;;5.15;2.60;;;21.70;92.00;;;;;;5048450;28;20033;-75
2022/06/06 15:40:29;;;;;;;4.60;2.50;;;21.70;91.70;;;;;;5034910;28;20476;-74
2022/06/06 15:43:13;;;;;;;9.45;2.78;;;21.80;91.30;;;;;;5035023;28;20467;-75
2022/06/06 15:46:11;;;;;;;4.15;2.33;;;21.90;92.40;;;;;;5041229;28;20045;-74
2022/06/06 15:48:46;;;;;;;5.03;2.60;;;21.90;91.70;;;;;;5055339;28;20564;-74
2022/06/06 15:51:35;;;;;;;4.68;2.63;;;21.90;91.70;;;;;;5049384;28;20033;-74
2022/06/06 15:54:37;;;;;;;6.68;2.90;;;21.90;92.30;;;;;;5041711;28;20048;-74
2022/06/06 15:57:11;;;;;;;5.53;2.58;;;21.90;92.20;;;;;;5047556;28;20034;-75
2022/06/06 16:00:30;;;;;;;5.95;2.70;;;21.90;91.60;;;;;;5033791;28;20490;-75
2022/06/06 16:03:14;;;;;;;4.13;2.83;;;21.90;92.00;;;;;;5029694;28;20121;-75
2022/06/06 16:05:46;;;;;;;4.88;3.33;;;21.70;91.60;;;;;;5035900;28;20038;-74
2022/06/06 16:08:39;;;;;;;4.85;3.30;;;21.80;91.60;;;;;;5041593;28;20069;-76
2022/06/06 16:11:22;;;;;;;6.72;4.13;;;21.90;91.30;;;;;;5043546;28;20042;-73
2022/06/06 16:14:29;;;;;;;5.20;3.17;;;21.90;91.80;;;;;;5043459;28;20577;-73
2022/06/06 16:16:57;;;;;;;7.05;3.58;;;22.10;91.70;;;;;;5049359;28;20034;-76
2022/06/06 16:19:28;;;;;;;4.70;2.90;;;22.10;91.70;;;;;;5049676;28;20057;-74
2022/06/06 16:22:07;;;;;;;3.70;2.92;;;22.30;91.90;;;;;;5037704;22;20010;-75
2022/06/06 16:24:49;;;;;;;6.03;2.95;;;22.40;91.30;;;;;;5022157;28;20042;-74
2022/06/06 16:27:41;;;;;;;4.32;2.72;;;22.40;90.70;;;;;;5021864;28;20034;-73
2022/06/06 16:30:20;;;;;;;4.72;2.85;;;22.50;90.80;;;;;;5022003;28;20080;-73
2022/06/06 16:33:08;;;;;;;4.45;2.70;;;22.60;90.10;;;;;;5017719;28;20039;-76
2022/06/06 16:35:44;;;;;;;4.00;2.60;;;22.60;90.50;;;;;;4998390;28;20109;-77
2022/06/06 16:38:13;;;;;;;4.68;3.35;;;22.40;90.70;;;;;;5012192;28;20100;-74
2022/06/06 16:40:41;;;;;;;3.75;2.75;;;22.40;91.70;;;;;;5014013;28;20093;-73
2022/06/06 16:49:49;;;;;;;3.30;2.33;;;22.50;92.00;;;;;;5009224;28;20043;-73
2022/06/06 16:52:29;;;;;;;3.50;2.50;;;22.60;92.60;;;;;;5006282;28;20050;-73
2022/06/06 16:55:29;;;;;;;4.45;2.20;;;22.60;91.00;;;;;;5009872;28;20033;-73
2022/06/06 16:58:04;;;;;;;2.95;2.30;;;22.40;90.90;;;;;;5007167;28;20127;-73
2022/06/06 17:00:54;;;;;;;2.40;2.20;;;22.40;90.80;;;;;;5006037;28;20512;-73
2022/06/06 17:03:31;;;;;;;3.70;2.30;;;22.20;90.90;;;;;;5007836;28;20062;-72
2022/06/06 17:09:34;;;;;;;2.75;2.35;;;22.10;91.00;;;;;;5010248;28;20034;-72
2022/06/06 17:12:21;;;;;;;4.10;2.60;;;21.90;91.80;;;;;;4994334;28;20054;-73
2022/06/06 17:15:01;;;;;;;3.28;2.40;;;21.80;92.90;;;;;;5011057;28;20500;-72
2022/06/06 17:17:27;;;;;;;5.25;2.42;;;21.60;92.40;;;;;;5014283;28;20523;-74
2022/06/06 17:20:29;;;;;;;3.63;2.30;;;21.60;92.20;;;;;;5009982;28;20034;-73
2022/06/06 17:23:00;;;;;;;3.33;2.75;;;21.40;93.30;;;;;;4996503;28;20132;-73
2022/06/06 17:25:43;;;;;;;5.03;2.30;;;21.30;93.30;;;;;;5010619;28;20778;-73
2022/06/06 17:28:26;;;;;;;2.75;2.45;;;21.20;93.40;;;;;;5004122;28;20114;-73
2022/06/06 17:31:02;;;;;;;3.17;2.08;;;21.20;93.00;;;;;;5010108;28;20041;-75
2022/06/06 17:33:44;;;;;;;3.00;2.55;;;21.10;93.20;;;;;;5011563;28;20040;-73
2022/06/06 17:36:33;;;;;;;3.40;2.72;;;21.10;92.80;;;;;;5012887;28;20062;-73
2022/06/06 17:39:44;;;;;;;5.47;3.50;;;21.10;94.00;;;;;;5015820;28;20483;-73
2022/06/06 17:42:10;;;;;;;3.67;2.47;;;21.10;92.80;;;;;;5004030;28;20052;-73
2022/06/06 17:45:10;;;;;;;4.75;2.25;;;21.10;92.80;;;;;;5015336;28;20832;-73
2022/06/06 17:48:03;;;;;;;3.42;2.10;;;21.20;92.70;;;;;;4991734;28;20050;-73
2022/06/06 17:50:59;;;;;;;6.25;1.98;;;21.20;91.40;;;;;;5015708;28;20030;-73
2022/06/06 17:54:16;;;;;;;2.10;1.85;;;21.20;91.00;;;;;;5002820;28;20040;-73
2022/06/06 17:56:59;;;;;;;3.83;1.70;;;21.10;92.00;;;;;;4999714;28;20385;-73
2022/06/06 17:59:45;;;;;;;3.20;1.60;;;21.20;91.90;;;;;;5013853;28;20526;-73
2022/06/06 18:02:47;;;;;;;3.28;1.60;;;21.20;90.80;;;;;;5004424;28;20066;-73
2022/06/06 18:05:55;;;;;;;2.53;1.80;;;21.20;91.10;;;;;;5014440;28;20037;-73
2022/06/06 18:08:24;;;;;;;3.17;1.90;;;21.10;92.10;;;;;;5013530;28;20104;-74
2022/06/06 18:11:04;;;;;;;2.75;1.52;;;21.10;91.80;;;;;;5014076;28;20038;-72
2022/06/06 18:13:55;;;;;;;2.15;1.55;;;21.00;92.10;;;;;;5012428;28;20034;-72
2022/06/06 18:16:47;;;;;;;2.70;1.70;;;20.90;91.90;;;;;;5008705;28;20108;-73
2022/06/06 18:19:22;;;;;;;2.78;1.83;;;20.80;92.20;;;;;;4997706;28;20540;-73
2022/06/06 18:21:49;;;;;;;3.25;1.70;;;20.70;92.60;;;;;;5004283;28;20038;-72
2022/06/06 18:24:23;;;;;;;2.92;1.95;;;20.60;93.30;;;;;;5014438;28;20081;-72
2022/06/06 18:27:15;;;;;;;2.58;1.65;;;20.50;92.80;;;;;;5014145;28;20038;-73
2022/06/06 18:29:52;;;;;;;1.60;1.50;;;20.50;92.40;;;;;;5008903;28;20058;-73
2022/06/06 18:32:35;;;;;;;3.15;1.60;;;20.40;92.50;;;;;;5015664;28;20512;-73
2022/06/06 18:35:03;;;;;;;3.85;1.80;;;20.30;92.50;;;;;;4998670;28;20041;-73